Date,TemperatureHighF,TemperatureAvgF,TemperatureLowF,DewpointHighF,DewpointAvgF,DewpointLowF,HumidityHigh,HumidityAvg,HumidityLow,PressureMaxIn,PressureMinIn,WindSpeedMaxMPH,WindSpeedAvgMPH,GustSpeedMaxMPH,PrecipitationSumIn
2014-1-1,11,4,-6,0,-5,-12,77,66,50,30.63,29.74,11,2,13,0.00
2014-1-2,12,6,-12,3,-2,-16,85,69,49,30.65,29.71,9,2,13,0.00
2014-1-3,21,5,-15,14,0,-19,88,78,64,30.64,29.10,18,4,27,0.00
2014-1-4,35,25,13,31,18,6,89,75,63,30.35,29.02,17,5,26,0.00
2014-1-5,14,3,-11,5,-7,-18,75,63,51,30.46,29.52,14,5,24,0.00
2014-1-6,-10,-14,-21,-17,-22,-28,76,67,55,30.44,29.52,20,6,28,0.00
2014-1-7,6,-6,-18,-6,-14,-22,85,69,52,30.51,29.54,11,3,23,0.00
2014-1-8,10,-3,-14,-1,-10,-19,86,72,51,30.73,29.67,9,1,12,0.00
2014-1-9,21,-3,-20,19,-7,-24,92,81,67,30.74,29.84,0,0,8,0.00
2014-1-10,35,29,22,35,29,21,100,99,97,30.27,29.71,8,0,15,0.20
2014-1-11,35,31,28,35,31,26,100,99,94,29.98,29.68,18,2,23,0.00
2014-1-12,40,33,23,33,29,23,100,87,70,29.99,29.74,13,2,24,0.00
2014-1-13,39,33,23,35,29,19,95,83,67,29.98,29.76,13,1,22,0.00
2014-1-14,31,24,15,31,24,15,100,96,87,30.18,29.74,13,1,26,0.13
2014-1-15,17,12,10,14,10,7,99,88,77,30.32,29.91,0,0,13,0.00
2014-1-16,31,22,10,30,19,7,97,89,75,29.99,29.66,11,1,27,0.00
2014-1-17,20,14,7,16,10,4,91,85,81,30.21,29.98,13,0,19,0.00
2014-1-18,17,9,2,14,7,-1,99,89,83,30.17,30.05,0,0,5,0.00
2014-1-19,35,26,10,28,21,10,98,83,68,30.06,29.73,14,2,18,0.00
2014-1-20,30,16,3,27,12,-5,93,85,68,30.54,29.91,11,1,23,0.00
2014-1-21,6,-1,-8,-4,-7,-12,83,73,58,30.64,30.39,0,0,13,0.00
2014-1-22,9,3,-3,6,-3,-10,91,77,64,30.49,30.15,16,1,23,0.00
2014-1-23,7,-2,-9,-2,-8,-14,81,73,60,30.82,30.51,3,0,22,0.00
2014-1-24,33,16,-9,32,9,-13,98,74,57,30.66,28.79,18,7,28,0.00
2014-1-25,33,13,1,31,0,-9,92,56,44,30.12,28.80,24,7,45,0.00
2014-1-26,21,10,4,15,4,-4,92,79,56,30.15,28.76,20,6,34,0.00
2014-1-27,4,-5,-11,-3,-15,-19,80,62,48,30.66,29.30,24,7,31,0.00
2014-1-28,5,-6,-19,-8,-15,-22,87,68,49,30.65,29.55,16,5,21,0.00
2014-1-29,28,11,-7,13,0,-11,83,61,42,30.44,29.18,14,6,21,0.00
2014-1-30,33,27,15,30,19,7,98,73,52,30.27,28.93,19,7,25,0.03
2014-1-31,14,5,-7,6,-4,-13,83,66,51,30.47,29.38,11,3,14,0.00
2014-2-1,24,12,-4,16,6,-12,85,76,68,30.45,29.37,8,2,14,0.00
2014-2-2,18,9,-7,8,1,-12,94,71,46,30.64,29.56,10,3,13,0.00
2014-2-3,24,11,-15,10,2,-19,86,67,51,30.67,29.64,10,4,16,0.00
2014-2-4,22,15,4,11,8,-1,88,73,58,30.73,29.70,6,2,11,0.00
2014-2-5,18,14,2,13,6,-4,91,71,62,30.74,29.67,14,5,19,0.00
2014-2-6,10,2,-5,-2,-5,-9,86,72,54,30.72,29.69,12,6,22,0.00
2014-2-7,17,6,-3,-1,-4,-8,82,65,43,30.58,29.59,16,6,24,0.00
2014-2-8,16,5,-11,13,1,-14,90,83,65,30.55,29.54,6,1,9,0.00
2014-2-9,18,10,2,11,3,-8,95,73,49,30.62,29.54,13,5,19,0.00
2014-2-10,12,2,-5,-4,-7,-13,76,64,46,30.78,29.73,9,4,17,0.00
2014-2-11,17,4,-10,0,-6,-22,83,65,46,30.82,29.68,8,3,14,0.00
2014-2-12,21,12,3,15,6,-5,89,78,64,30.59,29.39,6,2,13,0.00
2014-2-13,31,20,2,26,17,-2,95,86,76,30.29,28.87,14,6,25,0.00
2014-2-14,26,18,11,17,9,1,87,71,53,30.34,29.03,12,6,18,0.00
2014-2-15,22,12,-4,16,5,-8,91,75,52,30.36,29.35,8,2,13,0.00
2014-2-16,27,19,15,17,13,6,95,77,51,30.59,29.37,10,4,14,0.00
2014-2-17,26,23,16,25,21,10,97,92,78,30.17,29.13,12,4,21,0.11
2014-2-18,47,33,22,35,27,21,100,83,52,30.19,29.00,10,4,17,0.00
2014-2-19,48,40,30,30,26,21,83,59,37,30.23,29.09,10,5,24,0.00
2014-2-20,40,36,33,39,33,23,100,88,71,30.21,28.79,14,4,27,0.30
2014-2-21,35,22,17,35,16,11,100,79,63,30.09,29.45,25,9,36,0.00
2014-2-22,26,19,11,11,9,5,79,67,51,30.42,30.09,19,5,28,0.00
2014-2-23,23,14,6,8,5,1,82,68,51,30.53,30.42,16,2,24,0.00
2014-2-24,21,13,6,7,4,1,80,68,54,30.59,30.52,12,2,19,0.00
2014-2-25,13,8,-1,3,-2,-8,83,65,50,30.60,30.49,16,2,23,0.00
2014-2-26,13,4,-6,9,-5,-12,87,67,48,30.60,29.98,20,3,36,0.00
2014-2-27,7,-1,-13,-3,-13,-20,75,57,43,30.55,30.08,13,1,29,0.00
2014-2-28,18,4,-17,16,-3,-23,93,73,54,30.56,29.36,11,2,18,0.05
2014-3-1,18,10,4,16,4,-6,92,75,56,30.75,29.47,10,5,16,0.00
2014-3-2,9,3,-3,-6,-14,-17,71,46,30,30.85,29.80,13,6,18,0.00
2014-3-3,18,6,-10,1,-9,-20,71,51,37,30.87,29.73,11,3,13,0.00
2014-3-4,23,18,12,13,10,6,91,72,57,30.66,29.59,5,2,9,0.06
2014-3-5,21,16,3,12,6,-8,78,65,49,30.84,29.70,12,4,21,0.00
2014-3-6,30,16,-5,16,8,-9,87,72,50,29.87,29.40,11,3,17,0.00
2014-3-7,45,33,21,32,25,16,81,73,59,30.42,29.22,9,4,16,0.00
2014-3-8,36,29,21,30,18,10,78,62,44,30.58,29.47,8,4,16,0.00
2014-3-9,45,32,13,34,22,10,88,66,52,30.56,29.12,17,7,27,0.00
2014-3-10,61,49,38,38,36,32,91,62,36,30.07,28.97,12,5,19,0.00
2014-3-11,49,45,38,41,34,28,91,65,52,30.21,29.06,9,3,19,0.02
2014-3-12,37,26,15,30,16,5,84,68,41,30.49,29.22,11,2,20,0.00
2014-3-13,31,17,12,21,12,8,89,80,67,30.48,30.28,9,1,21,0.00
2014-3-31,68,63,58,43,41,40,54,44,39,29.08,28.95,15,10,33,0.00
2014-4-1,58,38,30,43,27,21,82,66,51,29.49,28.93,21,11,34,0.00
2014-4-2,49,37,27,28,25,22,92,66,36,30.61,29.52,8,2,16,0.00
2014-4-3,41,38,35,30,26,21,72,61,48,30.51,29.14,13,7,24,0.00
2014-4-4,38,36,35,35,31,28,91,83,72,30.39,28.92,19,6,35,0.12
2014-4-5,54,42,30,34,28,25,93,63,32,30.56,29.41,10,4,19,0.00
2014-4-6,63,50,37,39,34,27,75,56,39,30.48,29.30,13,5,23,0.00
2014-4-7,61,48,40,47,42,34,96,79,56,30.29,29.25,3,0,13,0.21
2014-4-8,57,47,37,45,38,30,95,72,44,30.36,30.09,11,2,24,0.00
2014-4-9,63,48,30,36,32,27,91,56,32,30.39,30.04,13,2,25,0.00
2014-4-10,64,56,40,40,32,23,63,42,22,30.35,29.98,19,4,28,0.00
2014-4-11,64,50,36,41,35,29,79,59,35,30.40,30.27,14,2,26,0.00
2014-4-12,47,44,41,44,40,36,100,87,69,30.41,30.12,12,1,32,1.03
2014-4-13,51,46,42,51,46,42,100,100,100,30.23,30.00,15,1,24,2.38
2014-4-14,41,32,25,41,31,22,100,94,83,30.46,30.00,17,2,31,0.24
2014-4-15,33,27,18,21,19,16,91,72,54,30.58,30.45,6,0,11,0.02
2014-4-16,52,41,27,32,28,21,81,62,47,30.62,29.42,19,4,32,0.00
2014-4-17,55,45,36,42,35,30,86,68,54,30.68,29.40,13,3,23,0.00
2014-4-18,55,42,31,34,31,28,95,69,39,30.76,30.67,5,0,18,0.00
2014-4-19,64,48,33,43,35,27,82,63,42,30.78,30.50,13,2,20,0.00
2014-4-20,63,57,53,56,48,41,99,75,53,30.52,30.35,9,1,18,0.08
2014-4-21,70,60,51,61,53,36,100,79,41,30.35,30.11,17,1,32,0.01
2014-4-22,55,47,38,37,32,29,74,57,42,30.50,30.28,14,4,25,0.00
2014-4-23,55,44,33,34,30,27,86,60,39,30.55,30.39,5,0,16,0.04
2014-4-24,48,42,34,44,38,31,95,89,76,30.47,30.07,13,1,23,0.42
2014-4-25,64,52,42,47,42,36,98,72,40,30.26,30.07,15,2,27,0.00
2014-4-26,51,44,35,36,34,31,86,69,57,30.46,30.26,11,2,19,0.00
2014-4-27,48,41,38,40,36,32,94,82,61,30.46,30.23,16,4,30,0.36
2014-4-28,49,44,41,43,40,36,94,86,68,30.26,30.07,24,7,30,0.33
2014-4-29,45,42,38,45,42,38,100,99,96,30.05,29.92,12,2,26,0.45
2014-4-30,52,47,43,52,45,40,100,93,77,30.09,30.00,8,1,16,0.05
2014-5-1,53,47,41,49,43,39,95,87,71,30.12,29.04,7,3,17,0.03
2014-5-2,54,50,47,47,43,36,88,78,65,30.15,29.05,11,5,15,0.04
2014-5-3,62,54,46,45,35,26,86,50,32,30.21,29.05,22,8,31,0.00
2014-5-4,62,54,44,37,28,20,66,40,20,30.41,29.30,11,4,16,0.00
2014-5-5,60,52,46,39,37,32,71,56,41,30.43,29.40,13,5,19,0.00
2014-5-6,64,53,40,41,38,35,88,59,37,30.26,29.36,13,5,23,0.03
2014-5-7,59,53,48,54,47,40,87,82,71,30.25,29.23,14,6,23,0.24
2014-5-8,81,65,51,66,54,36,98,68,53,30.17,29.10,11,4,24,0.00
2014-5-9,75,63,52,64,53,43,83,70,59,30.14,29.00,21,9,29,0.00
2014-5-10,75,60,47,48,41,26,88,56,17,30.21,29.23,11,3,17,0.00
2014-5-11,80,68,59,65,54,44,83,62,45,30.21,29.30,11,3,19,0.01
2014-5-12,80,69,63,75,49,16,100,56,14,30.16,29.17,10,3,19,0.68
2014-5-13,69,58,49,63,49,40,87,72,59,30.44,29.18,14,7,23,0.03
2014-5-14,59,52,42,43,38,34,86,62,43,30.52,29.57,11,2,16,0.00
2014-5-15,53,47,39,40,35,31,92,63,44,30.39,30.26,14,2,20,0.00
2014-5-16,52,44,34,33,31,28,83,59,43,30.41,30.33,6,0,13,0.00
2014-5-17,61,51,34,37,33,30,90,55,35,30.42,30.34,11,2,19,0.00
2014-5-18,72,60,48,42,38,36,65,47,30,30.47,30.36,8,1,18,0.00
2014-5-19,61,55,50,51,46,40,92,74,53,30.47,30.22,8,1,23,0.11
2014-5-20,82,69,55,65,59,49,88,72,51,30.21,30.08,7,0,11,0.00
2014-5-21,81,68,57,67,56,48,100,68,35,30.28,30.10,12,2,27,0.00
2014-5-22,71,61,51,50,48,46,88,64,44,30.41,30.28,9,1,16,0.00
2014-5-23,70,60,47,52,48,44,90,66,50,30.52,30.41,4,0,13,0.00
2014-5-24,77,64,49,54,48,45,94,60,35,30.52,30.35,1,0,11,0.00
2014-5-25,82,69,51,57,52,47,93,58,35,30.40,30.21,5,0,16,0.00
2014-5-26,83,73,65,70,65,56,89,75,59,30.24,30.13,13,1,18,0.00
2014-5-27,79,73,67,70,67,59,98,85,67,30.20,29.35,11,2,13,0.00
2014-5-28,76,67,59,62,51,44,86,59,43,30.35,29.42,6,3,15,0.01
2014-5-29,85,70,54,60,52,47,88,60,30,30.40,29.54,6,3,13,0.00
2014-5-30,88,74,54,61,52,45,86,50,25,30.45,29.58,10,3,18,0.00
2014-5-31,89,75,55,60,53,47,87,52,24,30.42,29.47,13,4,20,0.00
2014-6-1,85,73,67,72,55,29,84,56,22,30.27,29.29,11,4,35,1.46
2014-6-2,82,74,69,69,47,20,81,45,14,29.99,29.16,15,7,26,0.44
2014-6-3,78,71,63,61,54,50,74,57,39,30.17,29.22,16,7,27,0.00
2014-6-4,78,68,62,64,59,57,85,75,54,29.40,29.30,7,2,10,0.00
2014-6-5,80,69,57,64,52,39,84,56,38,29.45,29.38,9,3,14,0.00
2014-6-6,83,73,64,63,56,52,84,57,36,29.45,29.39,11,3,18,0.00
2014-6-7,82,70,61,64,58,50,86,68,43,29.45,29.35,11,3,18,0.07
2014-6-8,76,67,59,58,49,41,86,55,30,29.53,29.41,10,3,18,0.00
2014-6-9,77,66,52,60,52,44,87,65,39,29.53,29.43,10,2,12,0.00
2014-6-10,74,67,57,59,55,50,87,66,46,29.45,29.36,8,3,12,0.00
2014-6-11,66,65,63,55,54,53,69,68,67,29.35,29.30,5,3,8,0.00
2014-6-16,88,82,68,67,58,49,83,47,28,29.47,29.31,14,6,38,0.63
2014-6-17,86,76,67,72,60,40,82,58,35,29.38,29.18,11,4,38,0.18
2014-6-18,75,74,71,68,63,57,79,70,58,29.36,29.31,6,2,21,0.01
2014-7-7,85,76,63,65,63,58,99,69,45,29.92,29.76,10,2,32,0.68
2014-7-8,77,71,61,76,65,58,100,84,55,29.98,29.74,13,2,34,0.03
2014-7-9,74,66,60,63,57,51,99,76,50,30.18,29.97,15,1,23,0.00
2014-7-10,77,68,55,66,60,55,100,77,54,30.28,30.18,5,0,11,0.00
2014-7-11,75,70,63,64,61,58,92,74,58,30.25,30.17,11,1,21,0.00
2014-7-12,76,71,65,74,68,62,100,88,76,30.17,29.98,3,0,22,0.10
2014-7-13,79,70,60,72,62,50,100,78,41,30.02,29.97,14,1,22,0.01
2014-7-14,74,63,53,60,54,49,96,75,50,29.99,29.95,11,1,26,0.00
2014-7-15,66,59,53,56,53,50,95,80,61,30.08,29.98,12,3,23,0.00
2014-7-16,72,61,48,56,51,47,98,74,47,30.13,30.08,0,0,7,0.00
2014-7-17,77,64,50,57,53,50,100,71,43,30.18,30.12,1,0,7,0.00
2014-7-18,78,68,56,62,59,52,93,74,54,30.22,30.12,8,1,13,0.00
2014-7-19,79,70,60,65,61,58,96,75,52,30.14,30.05,8,0,14,0.00
2014-7-20,80,68,60,67,63,59,97,83,61,30.09,30.04,10,1,18,0.00
2014-7-21,86,76,64,71,68,62,96,77,59,30.11,30.04,6,1,18,0.00
2014-7-22,93,80,70,78,71,62,90,76,57,30.15,29.96,13,2,24,0.00
2014-7-23,79,69,60,62,58,55,95,71,51,30.28,30.16,6,1,15,0.00
2014-7-24,77,67,54,60,56,52,98,71,48,30.27,30.05,2,0,9,0.00
2014-7-25,70,65,61,65,61,56,94,86,78,30.10,29.92,10,1,19,0.00
2014-7-26,80,72,63,74,68,62,98,88,77,29.96,29.85,6,0,8,0.00
2014-7-27,76,69,60,70,64,56,100,86,66,30.08,29.80,11,2,29,0.17
2014-7-28,74,64,53,57,55,52,96,74,49,30.20,30.07,14,1,21,0.00
2014-7-29,81,67,57,62,57,54,91,72,47,30.12,30.05,11,1,26,0.00
2014-7-30,77,65,57,65,58,54,100,79,45,30.12,30.03,3,0,11,0.00
2014-7-31,83,71,59,67,62,58,100,75,48,30.06,30.01,3,0,18,0.00
2014-8-1,80,66,59,68,62,58,98,87,57,30.14,30.04,15,0,24,0.20
2014-8-2,85,70,56,69,62,56,100,79,45,30.18,30.10,1,0,5,0.00
2014-8-3,84,72,64,71,67,62,97,84,57,30.15,30.07,10,1,24,0.08
2014-8-4,74,68,64,72,66,63,99,94,86,30.13,30.08,11,0,21,0.00
2014-8-21,85,76,69,85,75,69,100,95,90,29.91,29.86,0,0,9,0.00
2014-8-22,76,74,73,76,74,73,100,100,100,29.89,29.85,0,0,1,0.00
2014-9-23,74,65,54,57,54,52,100,72,50,30.22,30.11,4,0,12,0.00
2014-9-24,72,60,50,60,55,29,100,84,60,30.25,29.72,6,0,13,0.00
2014-9-25,77,64,57,65,56,46,100,80,42,30.18,29.73,3,0,6,0.01
2014-9-26,78,63,50,62,55,50,100,79,47,30.21,30.03,0,0,8,0.00
2014-9-27,81,67,53,63,59,52,100,76,50,30.12,29.97,1,0,5,0.00
2014-9-28,83,67,55,66,60,55,100,80,49,30.04,29.88,0,0,2,0.00
2014-9-29,73,59,48,65,56,46,100,93,75,30.02,29.86,14,1,18,0.12
2014-9-30,49,46,42,46,44,40,95,91,85,30.09,29.99,6,1,14,0.00
2014-10-1,67,58,47,57,52,45,97,83,69,30.01,29.82,11,1,14,0.00
2014-10-2,68,62,56,66,60,54,100,94,87,29.84,29.54,3,0,11,0.29
2014-10-3,65,51,42,65,48,34,100,91,73,29.74,29.52,12,4,27,0.17
2014-10-4,46,41,36,42,37,33,97,85,72,29.74,29.64,7,1,21,0.00
2014-10-5,50,43,33,38,35,32,96,75,54,29.73,29.62,10,1,21,0.00
2014-10-6,55,46,35,42,37,32,100,74,41,29.63,29.52,11,1,22,0.00
2014-10-7,62,53,44,46,42,37,89,68,49,29.82,29.55,11,1,21,0.00
2014-10-8,60,50,38,42,37,32,99,65,43,30.03,29.83,11,2,31,0.00
2014-10-9,57,44,34,37,34,30,90,70,46,30.17,30.03,9,1,12,0.00
2014-10-10,58,46,33,43,35,31,97,70,43,30.25,30.12,0,0,6,0.00
2014-10-11,58,43,31,44,36,31,100,79,45,30.28,30.13,1,0,10,0.00
2014-10-12,60,48,33,48,40,32,99,77,47,30.14,29.90,10,1,16,0.00
2014-10-13,119,57,50,100,56,48,100,98,91,29.89,29.59,13,1,19,1.42
2014-10-14,65,15,0,100,88,26,100,96,36,29.56,28.98,10,1,31,0.14
2014-10-15,56,8,0,100,92,42,100,98,84,29.54,29.22,14,0,18,0.00
2014-10-16,55,17,0,100,85,50,100,95,84,29.54,29.33,3,1,0,0.00
2014-10-17,54,51,48,50,46,42,91,85,78,29.97,29.68,16,3,24,0.00
2014-10-18,51,44,34,43,38,33,95,81,56,30.25,29.98,8,2,21,0.02
2014-10-19,56,46,32,46,41,32,100,83,65,30.26,29.89,13,2,21,0.00
2014-10-20,55,50,43,48,44,42,96,81,66,30.12,29.88,11,2,22,0.00
2014-10-21,50,43,34,42,38,33,95,83,66,30.36,30.12,6,0,13,0.00
2014-10-22,57,41,29,46,36,29,100,85,53,30.44,30.26,6,0,13,0.00
2014-10-23,58,46,37,58,45,36,100,96,80,30.28,30.10,1,0,15,0.39
2014-10-24,104,59,54,100,58,53,100,97,87,30.13,29.94,0,0,7,0.00
2014-10-25,65,57,45,58,44,31,100,68,32,30.06,29.93,12,2,30,0.00
2014-10-26,64,49,35,38,34,29,86,57,31,30.12,29.89,3,0,11,0.00
2014-10-27,72,61,50,61,52,38,88,72,57,29.88,29.55,3,0,11,0.01
2014-10-28,57,49,43,55,42,36,95,77,63,29.97,29.61,10,3,26,0.01
2014-10-29,49,41,33,36,34,32,94,75,61,30.21,29.98,13,2,27,0.00
2014-10-30,50,42,32,40,36,31,100,82,66,30.21,30.12,14,1,23,0.00
2014-10-31,41,34,28,33,25,20,96,70,52,30.56,30.18,22,9,33,0.00
2014-11-1,43,32,21,28,24,18,89,72,49,30.59,30.44,0,0,7,0.00
2014-11-2,53,39,25,32,27,22,93,65,36,30.44,30.18,13,2,22,0.00
2014-11-3,56,48,40,52,37,26,96,67,50,30.18,29.92,3,0,17,0.05
2014-11-4,60,50,41,60,44,31,100,82,54,30.11,29.86,16,3,28,0.11
2014-11-5,47,41,33,40,35,30,95,79,67,30.21,29.93,3,0,11,0.00
2014-11-6,41,37,33,41,34,28,100,89,74,30.36,29.93,19,5,31,0.00
2014-11-7,45,37,33,36,29,27,93,74,59,30.32,29.15,13,2,19,0.01
2014-11-8,44,38,33,40,31,23,97,74,57,30.06,29.13,16,4,29,0.00
2014-11-9,47,38,32,36,32,26,100,82,65,30.01,29.17,12,1,19,0.00
2014-11-10,45,38,34,42,34,27,98,86,70,30.00,28.97,12,3,21,0.00
2014-11-11,38,31,23,34,28,18,100,92,79,30.25,29.09,17,4,28,0.02
2014-11-12,28,22,17,21,18,14,89,82,76,30.38,29.66,13,2,19,0.00
2014-11-13,28,23,17,22,18,15,91,81,66,30.40,29.69,16,4,22,0.00
2014-11-14,27,21,13,22,15,9,94,78,59,30.45,29.72,9,1,13,0.00
2014-11-15,27,18,9,22,14,7,98,85,54,30.45,29.60,5,0,12,0.00
2014-11-16,29,21,10,25,18,5,99,90,73,30.29,29.28,10,2,18,0.00
2014-11-17,16,11,7,13,7,4,94,81,66,30.02,29.21,19,3,27,0.00
2014-11-18,18,13,8,10,7,4,84,74,64,30.14,29.30,19,2,26,0.00
2014-11-19,26,20,15,21,15,8,95,81,67,30.07,29.15,19,3,32,0.00
2014-11-20,23,16,7,18,6,-1,89,66,42,30.41,29.32,17,4,25,0.00
2014-11-21,35,18,1,21,7,-3,93,63,35,30.49,29.48,15,3,22,0.00
2014-11-22,48,39,32,46,34,21,100,86,44,30.15,29.14,11,3,24,0.00
2014-11-23,53,50,47,53,40,16,100,75,28,29.83,28.59,11,2,17,0.23
2014-11-24,97,38,24,97,30,15,100,75,28,29.88,28.51,18,6,29,0.16
2014-11-25,32,20,10,28,19,9,100,96,80,30.28,29.18,12,2,18,0.00
2014-11-26,26,17,8,24,16,7,100,96,88,30.33,29.54,5,1,11,0.00
2014-11-27,26,15,4,24,13,2,100,91,73,30.50,29.67,9,2,16,0.00
2014-11-28,26,18,7,25,16,6,97,91,82,30.46,29.58,10,1,15,0.01
2014-11-29,42,34,23,40,33,23,100,97,87,29.95,29.61,2,0,11,0.00
2014-11-30,37,25,12,37,22,4,100,87,69,30.50,29.70,21,4,24,0.00
2014-12-1,11,6,-1,4,-2,-6,85,70,57,30.80,30.51,8,0,17,0.00
2014-12-2,27,19,0,22,14,-3,92,82,68,30.68,30.10,9,1,18,0.00
2014-12-3,30,22,14,21,15,8,91,74,51,30.47,30.11,14,2,27,0.00
2014-12-4,27,18,10,16,13,7,91,80,58,30.53,30.36,6,0,11,0.00
2014-12-5,35,29,19,32,27,17,98,94,90,30.44,30.27,2,0,6,0.00
2014-12-6,34,25,15,28,21,12,99,85,59,30.79,30.45,7,0,14,0.00
2014-12-7,34,24,13,27,19,11,97,82,62,30.77,30.34,11,2,18,0.00
2014-12-8,39,34,31,39,34,27,100,99,85,30.33,30.08,9,0,23,0.14
2014-12-9,37,31,25,37,29,23,100,93,81,30.55,30.29,11,2,16,0.00
2014-12-10,25,23,20,23,21,19,96,94,92,30.56,30.44,0,0,14,0.00
2014-12-11,30,24,19,27,22,18,99,90,84,30.43,29.66,12,5,18,0.00
2014-12-12,37,34,27,30,24,18,87,68,49,29.73,29.64,11,6,19,0.00
2014-12-13,45,41,37,27,16,9,68,37,24,29.64,29.47,10,4,14,0.00
2014-12-14,50,46,44,11,4,-2,26,18,12,29.48,29.38,5,2,8,0.00
2014-12-15,48,47,46,3,2,1,16,15,14,29.38,29.19,6,3,10,0.00
2014-12-31,18,16,9,8,5,0,73,63,53,30.48,30.22,20,5,32,0.00
2015-1-1,28,20,13,20,14,6,90,79,68,30.32,30.09,10,2,24,0.00
2015-1-2,30,21,10,21,15,8,93,80,51,30.51,30.32,1,0,11,0.00